ADDS METAR Data INFO
IDs: Format: Raw Decoded Include TAF

Data at: 0644 UTC 23 Feb 2018

KLIC 230555Z AUTO 33004KT 5SM BR SCT007 M09/M09 A3004 RMK AO2 SLP217 T10891089 10006 21094 53012
KLIC 230455Z AUTO 31006KT 5SM BR OVC007 M06/M07 A3003 RMK AO2 SLP213 T10611072
KLIC 230355Z AUTO 35011KT 5SM BR OVC006 M06/M07 A3001 RMK AO2 SLP207 T10561067
KLIC 230331Z AUTO 34007KT 5SM BR BKN006 M07/M07 A3001 RMK AO2 T10671072
KLIC 230323Z AUTO 32006KT 4SM BR SCT006 M08/M09 A3001 RMK AO2 T10831089
KLIC 230255Z AUTO 35006KT 5SM BR CLR M09/M09 A3000 RMK AO2 SLP216 T10891094 51027
KLIC 230155Z AUTO 36009KT 6SM BR CLR M06/M07 A2999 RMK AO2 SLP205 T10611072
KLIC 230055Z AUTO 01009KT 10SM CLR M05/M08 A2994 RMK AO2 WSHFT 2357 SLP185 T10501083
KLIC 230017Z AUTO 01012KT 10SM CLR M03/M08 A2992 RMK AO2 WSHFT 2357 T10281078
KLIC 222355Z AUTO 04007KT 10SM CLR 01/M09 A2991 RMK AO2 SLP161 T00061094 10028 21044 53007
KLIC 222255Z AUTO VRB03KT 10SM CLR 02/M10 A2989 RMK AO2 SLP151 T00171100
KLIC 222155Z AUTO 13008KT 10SM CLR 02/M09 A2988 RMK AO2 SLP144 T00221094
KLIC 222055Z AUTO 18008KT 10SM CLR 01/M09 A2989 RMK AO2 SLP147 T00111094 56018
KLIC 221955Z AUTO 15008KT 10SM CLR 01/M09 A2989 RMK AO2 SLP152 T00061094
KLIC 221855Z AUTO VRB06KT 10SM SCT027 M01/M10 A2992 RMK AO2 SLP163 T10111100
KLIC 221755Z AUTO VRB03KT 10SM CLR M04/M11 A2995 RMK AO2 SLP183 T10441111 11044 21117 58022
KLIC 221655Z AUTO 17007KT 10SM FEW032 M07/M12 A2997 RMK AO2 SLP198 T10721122
KLIC 221555Z AUTO 17009KT 10SM FEW036 M09/M13 A3001 RMK AO2 SLP216 T10891133
KLIC 221535Z AUTO 15010KT 10SM SCT012 M09/M14 A2999 RMK AO2 T10941144
KLIC 221455Z AUTO 18010KT 10SM OVC014 M11/M14 A3003 RMK AO2 SLP229 T11061144 53003
KLIC 221355Z AUTO 15010KT 10SM OVC012 M11/M14 A3002 RMK AO2 SLP225 T11111139
KLIC 221255Z AUTO 17008KT 10SM OVC011 M11/M13 A3002 RMK AO2 SLP220 T11111128
KLIC 221155Z AUTO 16010KT 10SM OVC010 M11/M13 A3002 RMK AO2 SLP209 T11061133 11089 21106 56016
KLIC 221055Z AUTO 18006KT 10SM OVC008 M10/M11 A3003 RMK AO2 SLP211 T11001111
KLIC 220955Z AUTO 16006KT 10SM OVC008 M10/M11 A3004 RMK AO2 SLP209 T11001111
KLIC 220855Z AUTO 15009KT 10SM OVC006 M09/M11 A3007 RMK AO2 SLP220 T10941106 58013
KLIC 220755Z AUTO 16007KT 10SM OVC006 M09/M09 A3009 RMK AO2 SLP231 T10941094
KLIC 220655Z AUTO 18008KT 10SM OVC007 M09/M10 A3011 RMK AO2 CIG 006V010 SLP239 T10891100 410171217
KLIC 220555Z AUTO 17005KT 10SM OVC007 M09/M11 A3012 RMK AO2 SLP245 T10941106 11044 21106 56010
KLIC 220523Z AUTO 18006KT 10SM BKN008 OVC012 M09/M11 A3012 RMK AO2 T10941111
KLIC 220455Z AUTO 17007KT 10SM OVC011 M09/M11 A3012 RMK AO2 SLP250 T10941106
KLIC 220417Z AUTO 17008KT 10SM OVC010 M09/M11 A3013 RMK AO2 T10891106
KLIC 220405Z AUTO 16011KT 10SM OVC009 M09/M11 A3013 RMK AO2 CIG 008V013 T10891106
KLIC 220355Z AUTO 16011KT 10SM OVC011 M09/M11 A3013 RMK AO2 SLP255 T10891106
KLIC 212355Z AUTO 15016KT 10SM CLR M04/M13 A3012 RMK AO2 SLP274 T10441133 11017 21050 55002
KLIC 212255Z AUTO 17014G20KT 10SM CLR M03/M13 A3011 RMK AO2 SLP263 T10281128
KLIC 212155Z AUTO 16013G20KT 10SM CLR M02/M14 A3011 RMK AO2 SLP259 T10171139
KLIC 212055Z AUTO 16014G23KT 10SM CLR M02/M13 A3013 RMK AO2 PK WND 17026/2006 SLP259 T10171128 57025
KLIC 211955Z AUTO 18013G20KT 10SM CLR M03/M12 A3016 RMK AO2 SLP272 T10281117
KLIC 211855Z AUTO 17016G25KT 10SM CLR M03/M13 A3018 RMK AO2 SLP290 T10331133